sensor_id;sensor_type;location;lat;lon;timestamp;P1;durP1;ratioP1;P2;durP2;ratioP2
52978;SDS011;63430;53.186;6.598;2024-02-15T00:00:55;46.08;;;21.52;;
52978;SDS011;63430;53.186;6.598;2024-02-15T00:03:00;49.78;;;21.52;;
52978;SDS011;63430;53.186;6.598;2024-02-15T00:05:02;47.17;;;21.45;;
52978;SDS011;63430;53.186;6.598;2024-02-15T00:07:05;54.70;;;21.88;;
52978;SDS011;63430;53.186;6.598;2024-02-15T00:09:08;55.03;;;23.27;;
52978;SDS011;63430;53.186;6.598;2024-02-15T00:11:10;53.30;;;22.42;;
52978;SDS011;63430;53.186;6.598;2024-02-15T00:13:18;53.03;;;22.35;;
52978;SDS011;63430;53.186;6.598;2024-02-15T00:15:21;48.55;;;21.98;;
52978;SDS011;63430;53.186;6.598;2024-02-15T00:17:23;56.95;;;24.20;;
52978;SDS011;63430;53.186;6.598;2024-02-15T00:19:26;47.60;;;21.02;;
52978;SDS011;63430;53.186;6.598;2024-02-15T00:21:32;56.13;;;22.85;;
52978;SDS011;63430;53.186;6.598;2024-02-15T00:23:37;47.08;;;21.77;;
52978;SDS011;63430;53.186;6.598;2024-02-15T00:25:44;49.63;;;21.95;;
52978;SDS011;63430;53.186;6.598;2024-02-15T00:27:47;44.53;;;20.58;;
52978;SDS011;63430;53.186;6.598;2024-02-15T00:29:53;60.60;;;23.60;;
52978;SDS011;63430;53.186;6.598;2024-02-15T00:31:56;51.83;;;21.40;;
52978;SDS011;63430;53.186;6.598;2024-02-15T00:34:00;54.78;;;22.50;;
52978;SDS011;63430;53.186;6.598;2024-02-15T00:36:05;52.75;;;22.13;;
52978;SDS011;63430;53.186;6.598;2024-02-15T00:38:09;48.08;;;22.35;;
52978;SDS011;63430;53.186;6.598;2024-02-15T00:40:13;56.10;;;22.65;;
52978;SDS011;63430;53.186;6.598;2024-02-15T00:42:16;50.28;;;21.52;;
52978;SDS011;63430;53.186;6.598;2024-02-15T00:44:20;49.90;;;21.90;;
52978;SDS011;63430;53.186;6.598;2024-02-15T00:46:27;54.67;;;22.48;;
52978;SDS011;63430;53.186;6.598;2024-02-15T00:48:31;51.08;;;23.05;;
52978;SDS011;63430;53.186;6.598;2024-02-15T00:50:35;44.95;;;20.90;;
52978;SDS011;63430;53.186;6.598;2024-02-15T00:52:38;46.90;;;21.88;;
52978;SDS011;63430;53.186;6.598;2024-02-15T00:54:43;49.38;;;21.67;;
52978;SDS011;63430;53.186;6.598;2024-02-15T00:56:47;49.05;;;20.75;;
52978;SDS011;63430;53.186;6.598;2024-02-15T00:58:50;50.47;;;20.58;;
52978;SDS011;63430;53.186;6.598;2024-02-15T01:00:54;48.63;;;20.48;;
52978;SDS011;63430;53.186;6.598;2024-02-15T01:03:00;50.70;;;22.70;;
52978;SDS011;63430;53.186;6.598;2024-02-15T01:05:02;50.17;;;20.65;;
52978;SDS011;63430;53.186;6.598;2024-02-15T01:07:05;48.80;;;20.90;;
52978;SDS011;63430;53.186;6.598;2024-02-15T01:09:09;49.95;;;20.98;;
52978;SDS011;63430;53.186;6.598;2024-02-15T01:11:12;58.92;;;22.42;;
52978;SDS011;63430;53.186;6.598;2024-02-15T01:13:15;47.63;;;21.20;;
52978;SDS011;63430;53.186;6.598;2024-02-15T01:15:18;43.40;;;20.75;;
52978;SDS011;63430;53.186;6.598;2024-02-15T01:17:21;44.75;;;20.02;;
52978;SDS011;63430;53.186;6.598;2024-02-15T01:19:27;47.58;;;20.70;;
52978;SDS011;63430;53.186;6.598;2024-02-15T01:21:29;44.60;;;20.17;;
52978;SDS011;63430;53.186;6.598;2024-02-15T01:23:34;41.10;;;19.95;;
52978;SDS011;63430;53.186;6.598;2024-02-15T01:25:39;40.83;;;20.67;;
52978;SDS011;63430;53.186;6.598;2024-02-15T01:27:41;42.80;;;19.70;;
52978;SDS011;63430;53.186;6.598;2024-02-15T01:29:44;45.00;;;19.20;;
52978;SDS011;63430;53.186;6.598;2024-02-15T01:31:47;45.38;;;19.70;;
52978;SDS011;63430;53.186;6.598;2024-02-15T01:33:49;38.42;;;19.20;;
52978;SDS011;63430;53.186;6.598;2024-02-15T01:35:54;43.85;;;20.63;;
52978;SDS011;63430;53.186;6.598;2024-02-15T01:37:58;42.08;;;19.35;;
52978;SDS011;63430;53.186;6.598;2024-02-15T01:40:00;41.50;;;19.50;;
52978;SDS011;63430;53.186;6.598;2024-02-15T01:42:03;38.15;;;20.08;;
52978;SDS011;63430;53.186;6.598;2024-02-15T01:44:06;38.55;;;18.77;;
52978;SDS011;63430;53.186;6.598;2024-02-15T01:46:09;36.90;;;18.55;;
52978;SDS011;63430;53.186;6.598;2024-02-15T01:48:12;42.40;;;19.20;;
52978;SDS011;63430;53.186;6.598;2024-02-15T01:50:16;33.30;;;18.42;;
52978;SDS011;63430;53.186;6.598;2024-02-15T01:52:22;40.83;;;19.30;;
52978;SDS011;63430;53.186;6.598;2024-02-15T01:54:25;36.25;;;19.02;;
52978;SDS011;63430;53.186;6.598;2024-02-15T01:56:28;35.28;;;18.65;;
52978;SDS011;63430;53.186;6.598;2024-02-15T01:58:32;31.08;;;17.45;;
52978;SDS011;63430;53.186;6.598;2024-02-15T02:00:36;37.60;;;17.83;;
52978;SDS011;63430;53.186;6.598;2024-02-15T02:02:42;32.13;;;16.13;;
52978;SDS011;63430;53.186;6.598;2024-02-15T02:04:46;34.05;;;16.92;;
52978;SDS011;63430;53.186;6.598;2024-02-15T02:06:50;30.42;;;16.60;;
52978;SDS011;63430;53.186;6.598;2024-02-15T02:08:56;35.25;;;17.33;;
52978;SDS011;63430;53.186;6.598;2024-02-15T02:11:00;34.78;;;15.07;;
52978;SDS011;63430;53.186;6.598;2024-02-15T02:13:04;30.50;;;15.23;;
52978;SDS011;63430;53.186;6.598;2024-02-15T02:15:08;31.50;;;15.27;;
52978;SDS011;63430;53.186;6.598;2024-02-15T02:17:13;24.95;;;14.23;;
52978;SDS011;63430;53.186;6.598;2024-02-15T02:19:16;27.27;;;14.52;;
52978;SDS011;63430;53.186;6.598;2024-02-15T02:21:19;30.02;;;14.32;;
52978;SDS011;63430;53.186;6.598;2024-02-15T02:23:24;28.58;;;14.40;;
52978;SDS011;63430;53.186;6.598;2024-02-15T02:25:31;30.48;;;14.48;;
52978;SDS011;63430;53.186;6.598;2024-02-15T02:27:33;30.85;;;14.30;;
52978;SDS011;63430;53.186;6.598;2024-02-15T02:29:41;29.25;;;15.05;;
52978;SDS011;63430;53.186;6.598;2024-02-15T02:33:52;26.77;;;13.50;;
52978;SDS011;63430;53.186;6.598;2024-02-15T02:35:56;29.00;;;14.13;;
52978;SDS011;63430;53.186;6.598;2024-02-15T02:37:59;33.30;;;14.30;;
52978;SDS011;63430;53.186;6.598;2024-02-15T02:40:02;29.90;;;13.73;;
52978;SDS011;63430;53.186;6.598;2024-02-15T02:42:07;26.98;;;13.45;;
52978;SDS011;63430;53.186;6.598;2024-02-15T02:44:10;29.83;;;14.10;;
52978;SDS011;63430;53.186;6.598;2024-02-15T02:46:12;26.67;;;12.93;;
52978;SDS011;63430;53.186;6.598;2024-02-15T02:48:15;26.75;;;13.30;;
52978;SDS011;63430;53.186;6.598;2024-02-15T02:50:20;24.33;;;12.30;;
52978;SDS011;63430;53.186;6.598;2024-02-15T02:52:24;27.33;;;12.60;;
52978;SDS011;63430;53.186;6.598;2024-02-15T02:54:27;26.30;;;11.70;;
52978;SDS011;63430;53.186;6.598;2024-02-15T02:56:31;22.00;;;11.95;;
52978;SDS011;63430;53.186;6.598;2024-02-15T02:58:36;27.15;;;11.98;;
52978;SDS011;63430;53.186;6.598;2024-02-15T03:00:39;22.48;;;11.77;;
52978;SDS011;63430;53.186;6.598;2024-02-15T03:02:41;19.50;;;10.32;;
52978;SDS011;63430;53.186;6.598;2024-02-15T03:04:45;25.15;;;11.35;;
52978;SDS011;63430;53.186;6.598;2024-02-15T03:06:48;22.67;;;11.15;;
52978;SDS011;63430;53.186;6.598;2024-02-15T03:08:50;23.85;;;12.07;;
52978;SDS011;63430;53.186;6.598;2024-02-15T03:10:56;24.05;;;11.10;;
52978;SDS011;63430;53.186;6.598;2024-02-15T03:12:59;21.45;;;10.73;;
52978;SDS011;63430;53.186;6.598;2024-02-15T03:15:04;22.05;;;10.75;;
52978;SDS011;63430;53.186;6.598;2024-02-15T03:17:14;24.40;;;10.48;;
52978;SDS011;63430;53.186;6.598;2024-02-15T03:19:17;19.75;;;10.60;;
52978;SDS011;63430;53.186;6.598;2024-02-15T03:21:20;22.83;;;10.20;;
52978;SDS011;63430;53.186;6.598;2024-02-15T03:23:23;21.75;;;11.20;;
52978;SDS011;63430;53.186;6.598;2024-02-15T03:25:28;21.25;;;9.88;;
52978;SDS011;63430;53.186;6.598;2024-02-15T03:27:33;23.65;;;11.25;;
52978;SDS011;63430;53.186;6.598;2024-02-15T03:29:36;22.52;;;10.75;;
52978;SDS011;63430;53.186;6.598;2024-02-15T03:31:42;26.30;;;11.65;;
52978;SDS011;63430;53.186;6.598;2024-02-15T03:33:46;24.30;;;11.38;;
52978;SDS011;63430;53.186;6.598;2024-02-15T03:35:52;26.38;;;11.25;;
52978;SDS011;63430;53.186;6.598;2024-02-15T03:37:56;28.60;;;12.02;;
52978;SDS011;63430;53.186;6.598;2024-02-15T03:40:01;26.77;;;11.15;;
52978;SDS011;63430;53.186;6.598;2024-02-15T03:42:05;25.48;;;11.50;;
52978;SDS011;63430;53.186;6.598;2024-02-15T03:44:09;33.78;;;11.45;;
52978;SDS011;63430;53.186;6.598;2024-02-15T03:46:12;29.42;;;11.68;;
52978;SDS011;63430;53.186;6.598;2024-02-15T03:48:19;29.42;;;12.38;;
52978;SDS011;63430;53.186;6.598;2024-02-15T03:50:23;30.17;;;12.25;;
52978;SDS011;63430;53.186;6.598;2024-02-15T03:52:27;33.45;;;11.40;;
52978;SDS011;63430;53.186;6.598;2024-02-15T03:54:32;36.60;;;12.43;;
52978;SDS011;63430;53.186;6.598;2024-02-15T03:56:35;34.97;;;12.23;;
52978;SDS011;63430;53.186;6.598;2024-02-15T03:58:38;30.35;;;11.25;;
52978;SDS011;63430;53.186;6.598;2024-02-15T04:00:42;36.33;;;12.32;;
52978;SDS011;63430;53.186;6.598;2024-02-15T04:02:48;37.00;;;12.93;;
52978;SDS011;63430;53.186;6.598;2024-02-15T04:04:54;32.65;;;12.60;;
52978;SDS011;63430;53.186;6.598;2024-02-15T04:06:58;32.65;;;13.00;;
52978;SDS011;63430;53.186;6.598;2024-02-15T04:09:01;29.30;;;11.80;;
52978;SDS011;63430;53.186;6.598;2024-02-15T04:11:05;34.10;;;12.02;;
52978;SDS011;63430;53.186;6.598;2024-02-15T04:13:10;37.30;;;13.23;;
52978;SDS011;63430;53.186;6.598;2024-02-15T04:15:15;37.78;;;12.43;;
52978;SDS011;63430;53.186;6.598;2024-02-15T04:17:20;33.47;;;12.13;;
52978;SDS011;63430;53.186;6.598;2024-02-15T04:19:24;34.83;;;12.48;;
52978;SDS011;63430;53.186;6.598;2024-02-15T04:21:30;30.27;;;12.15;;
52978;SDS011;63430;53.186;6.598;2024-02-15T04:23:32;40.20;;;12.90;;
52978;SDS011;63430;53.186;6.598;2024-02-15T04:25:35;36.53;;;13.50;;
52978;SDS011;63430;53.186;6.598;2024-02-15T04:27:38;32.75;;;13.30;;
52978;SDS011;63430;53.186;6.598;2024-02-15T04:29:41;30.13;;;13.18;;
52978;SDS011;63430;53.186;6.598;2024-02-15T04:31:46;34.92;;;13.30;;
52978;SDS011;63430;53.186;6.598;2024-02-15T04:33:52;27.60;;;12.88;;
52978;SDS011;63430;53.186;6.598;2024-02-15T04:35:55;29.40;;;12.98;;
52978;SDS011;63430;53.186;6.598;2024-02-15T04:38:00;35.40;;;13.38;;
52978;SDS011;63430;53.186;6.598;2024-02-15T04:40:03;36.03;;;14.93;;
52978;SDS011;63430;53.186;6.598;2024-02-15T04:42:13;34.05;;;15.02;;
52978;SDS011;63430;53.186;6.598;2024-02-15T04:44:15;31.08;;;15.35;;
52978;SDS011;63430;53.186;6.598;2024-02-15T04:46:18;31.55;;;15.45;;
52978;SDS011;63430;53.186;6.598;2024-02-15T04:48:24;33.50;;;16.38;;
52978;SDS011;63430;53.186;6.598;2024-02-15T04:50:26;29.13;;;16.05;;
52978;SDS011;63430;53.186;6.598;2024-02-15T04:52:29;36.33;;;15.95;;
52978;SDS011;63430;53.186;6.598;2024-02-15T04:54:34;36.95;;;16.73;;
52978;SDS011;63430;53.186;6.598;2024-02-15T04:56:37;34.15;;;16.48;;
52978;SDS011;63430;53.186;6.598;2024-02-15T04:58:40;36.88;;;17.90;;
52978;SDS011;63430;53.186;6.598;2024-02-15T05:00:49;32.67;;;17.48;;
52978;SDS011;63430;53.186;6.598;2024-02-15T05:02:55;38.97;;;18.35;;
52978;SDS011;63430;53.186;6.598;2024-02-15T05:04:57;43.15;;;19.13;;
52978;SDS011;63430;53.186;6.598;2024-02-15T05:07:00;37.03;;;19.10;;
52978;SDS011;63430;53.186;6.598;2024-02-15T05:09:03;39.78;;;19.83;;
52978;SDS011;63430;53.186;6.598;2024-02-15T05:11:15;37.38;;;19.42;;
52978;SDS011;63430;53.186;6.598;2024-02-15T05:13:20;40.20;;;21.23;;
52978;SDS011;63430;53.186;6.598;2024-02-15T05:15:22;38.95;;;19.85;;
52978;SDS011;63430;53.186;6.598;2024-02-15T05:17:27;39.22;;;20.48;;
52978;SDS011;63430;53.186;6.598;2024-02-15T05:19:33;37.70;;;20.02;;
52978;SDS011;63430;53.186;6.598;2024-02-15T05:21:38;35.08;;;21.02;;
52978;SDS011;63430;53.186;6.598;2024-02-15T05:23:42;44.22;;;22.27;;
52978;SDS011;63430;53.186;6.598;2024-02-15T05:25:47;34.67;;;21.50;;
52978;SDS011;63430;53.186;6.598;2024-02-15T05:27:52;41.53;;;23.83;;
52978;SDS011;63430;53.186;6.598;2024-02-15T05:29:57;42.35;;;23.77;;
52978;SDS011;63430;53.186;6.598;2024-02-15T05:32:00;42.42;;;23.67;;
52978;SDS011;63430;53.186;6.598;2024-02-15T05:34:04;39.45;;;23.75;;
52978;SDS011;63430;53.186;6.598;2024-02-15T05:36:07;42.90;;;24.50;;
52978;SDS011;63430;53.186;6.598;2024-02-15T05:38:10;39.97;;;24.00;;
52978;SDS011;63430;53.186;6.598;2024-02-15T05:40:17;41.28;;;23.90;;
52978;SDS011;63430;53.186;6.598;2024-02-15T05:42:21;39.80;;;24.10;;
52978;SDS011;63430;53.186;6.598;2024-02-15T05:44:27;43.35;;;23.55;;
52978;SDS011;63430;53.186;6.598;2024-02-15T05:46:29;40.80;;;25.33;;
52978;SDS011;63430;53.186;6.598;2024-02-15T05:48:32;40.78;;;24.95;;
52978;SDS011;63430;53.186;6.598;2024-02-15T05:50:39;43.40;;;24.98;;
52978;SDS011;63430;53.186;6.598;2024-02-15T05:52:42;38.72;;;24.65;;
52978;SDS011;63430;53.186;6.598;2024-02-15T05:54:44;43.97;;;25.88;;
52978;SDS011;63430;53.186;6.598;2024-02-15T05:56:47;39.00;;;24.73;;
52978;SDS011;63430;53.186;6.598;2024-02-15T05:58:54;42.80;;;26.13;;
52978;SDS011;63430;53.186;6.598;2024-02-15T06:00:59;44.20;;;26.58;;
52978;SDS011;63430;53.186;6.598;2024-02-15T06:03:09;43.75;;;24.67;;
52978;SDS011;63430;53.186;6.598;2024-02-15T06:05:13;43.33;;;24.85;;
52978;SDS011;63430;53.186;6.598;2024-02-15T06:07:18;41.72;;;25.30;;
52978;SDS011;63430;53.186;6.598;2024-02-15T06:09:21;39.95;;;25.35;;
52978;SDS011;63430;53.186;6.598;2024-02-15T06:11:28;41.33;;;26.77;;
52978;SDS011;63430;53.186;6.598;2024-02-15T06:13:30;45.42;;;28.45;;
52978;SDS011;63430;53.186;6.598;2024-02-15T06:15:33;46.15;;;28.42;;
52978;SDS011;63430;53.186;6.598;2024-02-15T06:17:40;47.10;;;28.38;;
52978;SDS011;63430;53.186;6.598;2024-02-15T06:19:45;46.95;;;27.80;;
52978;SDS011;63430;53.186;6.598;2024-02-15T06:21:48;47.47;;;28.00;;
52978;SDS011;63430;53.186;6.598;2024-02-15T06:23:51;45.80;;;28.30;;
52978;SDS011;63430;53.186;6.598;2024-02-15T06:25:55;47.83;;;29.20;;
52978;SDS011;63430;53.186;6.598;2024-02-15T06:28:00;54.15;;;30.88;;
52978;SDS011;63430;53.186;6.598;2024-02-15T06:30:17;49.85;;;30.10;;
52978;SDS011;63430;53.186;6.598;2024-02-15T06:32:40;43.97;;;28.27;;
52978;SDS011;63430;53.186;6.598;2024-02-15T06:35:02;52.33;;;29.35;;
52978;SDS011;63430;53.186;6.598;2024-02-15T06:37:35;50.78;;;29.45;;
52978;SDS011;63430;53.186;6.598;2024-02-15T06:39:57;46.28;;;27.83;;
52978;SDS011;63430;53.186;6.598;2024-02-15T06:41:59;53.70;;;29.88;;
52978;SDS011;63430;53.186;6.598;2024-02-15T06:44:03;53.42;;;30.42;;
52978;SDS011;63430;53.186;6.598;2024-02-15T06:46:06;49.58;;;28.38;;
52978;SDS011;63430;53.186;6.598;2024-02-15T06:48:12;46.85;;;29.48;;
52978;SDS011;63430;53.186;6.598;2024-02-15T06:50:14;53.05;;;29.60;;
52978;SDS011;63430;53.186;6.598;2024-02-15T06:52:18;61.00;;;31.23;;
52978;SDS011;63430;53.186;6.598;2024-02-15T06:54:21;51.80;;;29.38;;
52978;SDS011;63430;53.186;6.598;2024-02-15T06:56:25;51.08;;;29.92;;
52978;SDS011;63430;53.186;6.598;2024-02-15T06:58:28;60.35;;;31.75;;
52978;SDS011;63430;53.186;6.598;2024-02-15T07:00:30;60.83;;;33.13;;
52978;SDS011;63430;53.186;6.598;2024-02-15T07:02:34;49.60;;;30.58;;
52978;SDS011;63430;53.186;6.598;2024-02-15T07:04:39;53.28;;;31.30;;
52978;SDS011;63430;53.186;6.598;2024-02-15T07:06:42;47.30;;;29.10;;
52978;SDS011;63430;53.186;6.598;2024-02-15T07:08:48;47.95;;;31.08;;
52978;SDS011;63430;53.186;6.598;2024-02-15T07:10:52;50.22;;;29.65;;
52978;SDS011;63430;53.186;6.598;2024-02-15T07:12:55;48.75;;;29.98;;
52978;SDS011;63430;53.186;6.598;2024-02-15T07:14:58;55.20;;;32.42;;
52978;SDS011;63430;53.186;6.598;2024-02-15T07:17:03;56.35;;;30.45;;
52978;SDS011;63430;53.186;6.598;2024-02-15T07:19:06;50.42;;;30.95;;
52978;SDS011;63430;53.186;6.598;2024-02-15T07:21:12;52.03;;;30.85;;
52978;SDS011;63430;53.186;6.598;2024-02-15T07:23:16;52.40;;;31.52;;
52978;SDS011;63430;53.186;6.598;2024-02-15T07:25:18;52.38;;;30.13;;
52978;SDS011;63430;53.186;6.598;2024-02-15T07:27:21;52.65;;;30.70;;
52978;SDS011;63430;53.186;6.598;2024-02-15T07:29:27;50.13;;;30.90;;
52978;SDS011;63430;53.186;6.598;2024-02-15T07:31:32;48.58;;;31.30;;
52978;SDS011;63430;53.186;6.598;2024-02-15T07:33:37;51.28;;;30.42;;
52978;SDS011;63430;53.186;6.598;2024-02-15T07:35:41;53.72;;;32.00;;
52978;SDS011;63430;53.186;6.598;2024-02-15T07:37:54;49.85;;;31.98;;
52978;SDS011;63430;53.186;6.598;2024-02-15T07:40:00;56.80;;;31.88;;
52978;SDS011;63430;53.186;6.598;2024-02-15T07:42:04;55.40;;;31.60;;
52978;SDS011;63430;53.186;6.598;2024-02-15T07:44:09;56.97;;;31.40;;
52978;SDS011;63430;53.186;6.598;2024-02-15T07:46:14;54.38;;;31.38;;
52978;SDS011;63430;53.186;6.598;2024-02-15T07:48:20;53.00;;;29.90;;
52978;SDS011;63430;53.186;6.598;2024-02-15T07:50:23;51.17;;;29.77;;
52978;SDS011;63430;53.186;6.598;2024-02-15T07:52:26;49.97;;;29.92;;
52978;SDS011;63430;53.186;6.598;2024-02-15T07:54:34;55.90;;;31.77;;
52978;SDS011;63430;53.186;6.598;2024-02-15T07:56:37;50.72;;;30.13;;
52978;SDS011;63430;53.186;6.598;2024-02-15T07:58:42;52.38;;;29.83;;
52978;SDS011;63430;53.186;6.598;2024-02-15T08:00:54;47.90;;;28.90;;
52978;SDS011;63430;53.186;6.598;2024-02-15T08:02:59;54.83;;;30.85;;
52978;SDS011;63430;53.186;6.598;2024-02-15T08:05:03;49.72;;;28.83;;
52978;SDS011;63430;53.186;6.598;2024-02-15T08:07:07;55.50;;;28.98;;
52978;SDS011;63430;53.186;6.598;2024-02-15T08:09:12;58.25;;;32.25;;
52978;SDS011;63430;53.186;6.598;2024-02-15T08:11:19;51.53;;;28.92;;
52978;SDS011;63430;53.186;6.598;2024-02-15T08:13:22;51.05;;;29.20;;
52978;SDS011;63430;53.186;6.598;2024-02-15T08:15:29;50.50;;;28.25;;
52978;SDS011;63430;53.186;6.598;2024-02-15T08:17:32;48.17;;;27.92;;
52978;SDS011;63430;53.186;6.598;2024-02-15T08:19:35;44.20;;;25.77;;
52978;SDS011;63430;53.186;6.598;2024-02-15T08:21:39;46.65;;;27.02;;
52978;SDS011;63430;53.186;6.598;2024-02-15T08:23:43;38.72;;;24.77;;
52978;SDS011;63430;53.186;6.598;2024-02-15T08:25:46;44.58;;;26.67;;
52978;SDS011;63430;53.186;6.598;2024-02-15T08:27:51;45.53;;;25.13;;
52978;SDS011;63430;53.186;6.598;2024-02-15T08:29:54;46.95;;;26.73;;
52978;SDS011;63430;53.186;6.598;2024-02-15T08:31:57;39.97;;;23.35;;
52978;SDS011;63430;53.186;6.598;2024-02-15T08:34:00;37.95;;;23.55;;
52978;SDS011;63430;53.186;6.598;2024-02-15T08:36:04;44.88;;;24.80;;
52978;SDS011;63430;53.186;6.598;2024-02-15T08:38:07;40.40;;;23.70;;
52978;SDS011;63430;53.186;6.598;2024-02-15T08:40:10;38.33;;;25.05;;
52978;SDS011;63430;53.186;6.598;2024-02-15T08:42:13;37.92;;;23.90;;
52978;SDS011;63430;53.186;6.598;2024-02-15T08:44:18;38.13;;;22.30;;
52978;SDS011;63430;53.186;6.598;2024-02-15T08:46:23;42.15;;;24.42;;
52978;SDS011;63430;53.186;6.598;2024-02-15T08:48:27;36.53;;;21.85;;
52978;SDS011;63430;53.186;6.598;2024-02-15T08:50:30;33.17;;;21.02;;
52978;SDS011;63430;53.186;6.598;2024-02-15T08:52:32;39.65;;;22.10;;
52978;SDS011;63430;53.186;6.598;2024-02-15T08:54:35;36.30;;;21.35;;
52978;SDS011;63430;53.186;6.598;2024-02-15T08:56:40;30.73;;;20.65;;
52978;SDS011;63430;53.186;6.598;2024-02-15T08:58:42;35.17;;;21.23;;
52978;SDS011;63430;53.186;6.598;2024-02-15T09:00:48;33.42;;;21.42;;
52978;SDS011;63430;53.186;6.598;2024-02-15T09:02:50;29.70;;;20.67;;
52978;SDS011;63430;53.186;6.598;2024-02-15T09:04:54;34.05;;;20.50;;
52978;SDS011;63430;53.186;6.598;2024-02-15T09:06:59;32.17;;;22.48;;
52978;SDS011;63430;53.186;6.598;2024-02-15T09:09:06;31.35;;;21.92;;
52978;SDS011;63430;53.186;6.598;2024-02-15T09:11:11;33.53;;;20.38;;
52978;SDS011;63430;53.186;6.598;2024-02-15T09:13:15;32.88;;;21.88;;
52978;SDS011;63430;53.186;6.598;2024-02-15T09:15:18;31.23;;;20.17;;
52978;SDS011;63430;53.186;6.598;2024-02-15T09:17:24;28.77;;;19.25;;
52978;SDS011;63430;53.186;6.598;2024-02-15T09:19:29;28.15;;;19.67;;
52978;SDS011;63430;53.186;6.598;2024-02-15T09:21:33;30.52;;;20.30;;
52978;SDS011;63430;53.186;6.598;2024-02-15T09:23:36;34.67;;;21.73;;
52978;SDS011;63430;53.186;6.598;2024-02-15T09:25:41;27.35;;;19.83;;
52978;SDS011;63430;53.186;6.598;2024-02-15T09:27:47;28.15;;;19.17;;
52978;SDS011;63430;53.186;6.598;2024-02-15T09:29:50;28.60;;;19.17;;
52978;SDS011;63430;53.186;6.598;2024-02-15T09:31:55;28.40;;;19.38;;
52978;SDS011;63430;53.186;6.598;2024-02-15T09:34:02;26.13;;;19.23;;
52978;SDS011;63430;53.186;6.598;2024-02-15T09:36:10;30.33;;;19.17;;
52978;SDS011;63430;53.186;6.598;2024-02-15T09:38:15;26.15;;;18.60;;
52978;SDS011;63430;53.186;6.598;2024-02-15T09:40:20;25.75;;;18.15;;
52978;SDS011;63430;53.186;6.598;2024-02-15T09:42:23;32.45;;;20.77;;
52978;SDS011;63430;53.186;6.598;2024-02-15T09:44:25;26.75;;;18.90;;
52978;SDS011;63430;53.186;6.598;2024-02-15T09:46:32;28.30;;;19.98;;
52978;SDS011;63430;53.186;6.598;2024-02-15T09:48:37;27.23;;;18.90;;
52978;SDS011;63430;53.186;6.598;2024-02-15T09:50:47;28.35;;;19.88;;
52978;SDS011;63430;53.186;6.598;2024-02-15T09:52:52;29.00;;;19.15;;
52978;SDS011;63430;53.186;6.598;2024-02-15T09:54:56;26.27;;;19.25;;
52978;SDS011;63430;53.186;6.598;2024-02-15T09:56:58;27.13;;;18.85;;
52978;SDS011;63430;53.186;6.598;2024-02-15T09:59:05;27.75;;;19.95;;
52978;SDS011;63430;53.186;6.598;2024-02-15T10:01:09;27.42;;;19.33;;
52978;SDS011;63430;53.186;6.598;2024-02-15T10:03:14;22.13;;;17.83;;
52978;SDS011;63430;53.186;6.598;2024-02-15T10:05:21;24.92;;;18.10;;
52978;SDS011;63430;53.186;6.598;2024-02-15T10:07:27;27.23;;;18.95;;
52978;SDS011;63430;53.186;6.598;2024-02-15T10:09:30;21.98;;;17.55;;
52978;SDS011;63430;53.186;6.598;2024-02-15T10:11:33;21.65;;;17.33;;
52978;SDS011;63430;53.186;6.598;2024-02-15T10:13:35;20.70;;;17.23;;
52978;SDS011;63430;53.186;6.598;2024-02-15T10:15:39;22.20;;;16.77;;
52978;SDS011;63430;53.186;6.598;2024-02-15T10:17:53;20.52;;;16.05;;
52978;SDS011;63430;53.186;6.598;2024-02-15T10:20:02;21.77;;;16.30;;
52978;SDS011;63430;53.186;6.598;2024-02-15T10:22:06;19.58;;;15.32;;
52978;SDS011;63430;53.186;6.598;2024-02-15T10:24:12;16.52;;;14.05;;
52978;SDS011;63430;53.186;6.598;2024-02-15T10:26:20;19.65;;;14.65;;
52978;SDS011;63430;53.186;6.598;2024-02-15T10:28:25;18.63;;;13.85;;
52978;SDS011;63430;53.186;6.598;2024-02-15T10:30:29;21.50;;;14.80;;
52978;SDS011;63430;53.186;6.598;2024-02-15T10:32:34;18.75;;;14.32;;
52978;SDS011;63430;53.186;6.598;2024-02-15T10:34:43;14.40;;;12.25;;
52978;SDS011;63430;53.186;6.598;2024-02-15T10:36:46;15.02;;;12.45;;
52978;SDS011;63430;53.186;6.598;2024-02-15T10:38:49;13.73;;;11.65;;
52978;SDS011;63430;53.186;6.598;2024-02-15T10:40:55;14.15;;;12.07;;
52978;SDS011;63430;53.186;6.598;2024-02-15T10:43:09;15.18;;;12.20;;
52978;SDS011;63430;53.186;6.598;2024-02-15T10:45:17;15.95;;;12.18;;
52978;SDS011;63430;53.186;6.598;2024-02-15T10:47:24;14.32;;;10.85;;
52978;SDS011;63430;53.186;6.598;2024-02-15T10:49:28;16.33;;;11.55;;
52978;SDS011;63430;53.186;6.598;2024-02-15T10:51:31;14.90;;;11.52;;
52978;SDS011;63430;53.186;6.598;2024-02-15T10:53:37;12.40;;;11.10;;
52978;SDS011;63430;53.186;6.598;2024-02-15T10:55:48;14.02;;;10.30;;
52978;SDS011;63430;53.186;6.598;2024-02-15T10:58:01;12.52;;;10.20;;
52978;SDS011;63430;53.186;6.598;2024-02-15T11:00:05;10.52;;;9.48;;
52978;SDS011;63430;53.186;6.598;2024-02-15T11:02:19;12.50;;;10.13;;
52978;SDS011;63430;53.186;6.598;2024-02-15T11:04:28;10.65;;;9.55;;
52978;SDS011;63430;53.186;6.598;2024-02-15T11:06:38;12.38;;;10.20;;
52978;SDS011;63430;53.186;6.598;2024-02-15T11:08:44;13.15;;;9.77;;
52978;SDS011;63430;53.186;6.598;2024-02-15T11:10:47;10.57;;;9.57;;
52978;SDS011;63430;53.186;6.598;2024-02-15T11:12:52;11.85;;;9.70;;
52978;SDS011;63430;53.186;6.598;2024-02-15T11:14:55;10.80;;;9.43;;
52978;SDS011;63430;53.186;6.598;2024-02-15T11:16:58;11.32;;;9.57;;
52978;SDS011;63430;53.186;6.598;2024-02-15T11:19:07;11.20;;;9.07;;
52978;SDS011;63430;53.186;6.598;2024-02-15T11:21:12;10.02;;;9.00;;
52978;SDS011;63430;53.186;6.598;2024-02-15T11:23:23;9.77;;;8.88;;
52978;SDS011;63430;53.186;6.598;2024-02-15T11:25:33;10.05;;;7.82;;
52978;SDS011;63430;53.186;6.598;2024-02-15T11:27:36;9.48;;;8.32;;
52978;SDS011;63430;53.186;6.598;2024-02-15T11:29:52;9.50;;;8.55;;
52978;SDS011;63430;53.186;6.598;2024-02-15T11:32:00;8.05;;;7.25;;
52978;SDS011;63430;53.186;6.598;2024-02-15T11:36:35;9.45;;;8.10;;
52978;SDS011;63430;53.186;6.598;2024-02-15T11:38:40;8.32;;;7.53;;
52978;SDS011;63430;53.186;6.598;2024-02-15T11:43:02;7.78;;;7.07;;
52978;SDS011;63430;53.186;6.598;2024-02-15T11:45:09;7.07;;;6.13;;
52978;SDS011;63430;53.186;6.598;2024-02-15T11:47:11;6.47;;;5.80;;
52978;SDS011;63430;53.186;6.598;2024-02-15T11:49:15;7.32;;;6.15;;
52978;SDS011;63430;53.186;6.598;2024-02-15T11:51:24;6.03;;;5.20;;
52978;SDS011;63430;53.186;6.598;2024-02-15T11:53:28;6.28;;;5.65;;
52978;SDS011;63430;53.186;6.598;2024-02-15T11:55:31;5.75;;;5.25;;
52978;SDS011;63430;53.186;6.598;2024-02-15T11:57:34;5.45;;;4.95;;
52978;SDS011;63430;53.186;6.598;2024-02-15T11:59:51;4.55;;;4.10;;
52978;SDS011;63430;53.186;6.598;2024-02-15T12:02:15;4.85;;;4.45;;
52978;SDS011;63430;53.186;6.598;2024-02-15T12:04:38;4.68;;;4.28;;
52978;SDS011;63430;53.186;6.598;2024-02-15T12:06:59;6.45;;;3.92;;
52978;SDS011;63430;53.186;6.598;2024-02-15T12:09:20;4.60;;;3.50;;
52978;SDS011;63430;53.186;6.598;2024-02-15T12:11:41;3.65;;;3.35;;
52978;SDS011;63430;53.186;6.598;2024-02-15T12:14:02;3.72;;;3.42;;
52978;SDS011;63430;53.186;6.598;2024-02-15T12:16:24;3.40;;;3.10;;
52978;SDS011;63430;53.186;6.598;2024-02-15T12:18:48;3.40;;;3.10;;
52978;SDS011;63430;53.186;6.598;2024-02-15T12:20:54;3.30;;;3.00;;